Time;durP1;ratioP1;P1;durP2;ratioP2;P2;SDS_P1;SDS_P2;PMS_P1;PMS_P2;Temp;Humidity;BMP_temperature;BMP_pressure;BME280_temperature;BME280_humidity;BME280_pressure;Samples;Min_cycle;Max_cycle;Signal;HPM_P1;HPM_P2
2023/10/03 00:00:15;;;;;;;23.08;15.10;;;20.70;99.90;;;;;;6121082;23;20032;-70
2023/10/03 00:02:41;;;;;;;23.13;15.45;;;21.40;99.90;;;;;;6121425;23;20010;-70
2023/10/03 00:05:08;;;;;;;24.33;15.52;;;20.20;99.90;;;;;;6120663;23;20084;-69
2023/10/03 00:07:37;;;;;;;21.08;14.23;;;21.50;99.90;;;;;;6096169;23;20013;-70
2023/10/03 00:10:03;;;;;;;24.20;15.00;;;20.50;99.90;;;;;;6120580;23;20068;-70
2023/10/03 00:12:32;;;;;;;21.65;14.23;;;20.50;99.90;;;;;;6122672;23;20380;-70
2023/10/03 00:14:58;;;;;;;21.40;13.90;;;20.50;99.90;;;;;;6120797;23;20643;-69
2023/10/03 00:17:26;;;;;;;23.35;14.70;;;20.30;99.90;;;;;;6122509;23;20094;-70
2023/10/03 00:19:52;;;;;;;22.00;15.00;;;20.60;99.90;;;;;;6121997;23;20092;-70
2023/10/03 00:22:17;;;;;;;24.08;14.30;;;23.40;99.90;;;;;;6123537;23;20041;-69
2023/10/03 00:24:43;;;;;;;23.77;14.57;;;21.10;99.90;;;;;;6121734;23;20097;-69
2023/10/03 00:27:09;;;;;;;21.35;13.55;;;20.70;99.90;;;;;;6096103;23;20120;-70
2023/10/03 00:29:35;;;;;;;23.75;13.93;;;20.40;99.90;;;;;;6120628;23;20472;-70
2023/10/03 00:32:01;;;;;;;23.70;13.93;;;20.40;99.90;;;;;;6120823;23;20013;-70
2023/10/03 00:34:27;;;;;;;23.42;14.02;;;21.10;99.90;;;;;;6121416;23;20014;-70
2023/10/03 00:36:54;;;;;;;22.98;14.27;;;21.10;99.90;;;;;;6121361;23;20068;-70
2023/10/03 00:39:20;;;;;;;26.50;16.35;;;20.20;99.90;;;;;;6095782;23;20089;-70
2023/10/03 00:41:46;;;;;;;21.98;13.68;;;20.80;99.90;;;;;;6121351;23;20478;-69
2023/10/03 00:44:12;;;;;;;22.75;14.07;;;21.20;99.90;;;;;;6120688;23;20040;-69
2023/10/03 00:46:38;;;;;;;19.65;12.27;;;20.40;99.90;;;;;;6120925;23;20422;-69
2023/10/03 00:49:10;;;;;;;26.00;14.90;;;21.10;99.90;;;;;;6120542;23;20638;-69
2023/10/03 00:51:40;;;;;;;21.73;13.50;;;20.90;99.90;;;;;;6123139;23;20017;-69
2023/10/03 00:54:06;;;;;;;20.08;12.65;;;20.30;99.90;;;;;;6121415;23;20089;-70
2023/10/03 00:56:32;;;;;;;21.27;13.02;;;20.50;99.90;;;;;;6122492;23;20515;-70
2023/10/03 00:58:58;;;;;;;22.00;11.90;;;21.30;99.90;;;;;;6120501;23;20064;-69
2023/10/03 01:01:28;;;;;;;19.92;12.48;;;20.20;99.90;;;;;;6121226;23;20041;-70
2023/10/03 01:03:55;;;;;;;23.98;14.07;;;20.40;99.90;;;;;;6123348;23;20018;-70
2023/10/03 01:06:21;;;;;;;17.98;11.68;;;21.00;99.90;;;;;;6120868;23;20106;-70
2023/10/03 01:08:51;;;;;;;22.77;14.43;;;20.90;99.90;;;;;;6120827;23;20045;-69
2023/10/03 01:11:18;;;;;;;22.52;12.90;;;20.50;99.90;;;;;;6096888;23;20010;-69
2023/10/03 01:14:00;;;;;;;24.83;14.73;;;21.30;99.90;;;;;;6096663;23;20089;-70
2023/10/03 01:16:33;;;;;;;22.33;12.95;;;21.40;99.90;;;;;;6096697;23;20444;-69
2023/10/03 01:19:10;;;;;;;21.20;12.10;;;21.40;99.90;;;;;;6121557;23;20150;-70
2023/10/03 01:21:37;;;;;;;21.10;12.93;;;20.70;99.90;;;;;;6096263;23;20064;-70
2023/10/03 01:24:07;;;;;;;19.95;12.02;;;21.30;99.90;;;;;;6122320;23;20365;-69
2023/10/03 01:26:33;;;;;;;20.73;12.82;;;21.10;99.90;;;;;;6120917;23;20018;-69
2023/10/03 01:28:59;;;;;;;16.95;10.93;;;20.30;99.90;;;;;;6095560;23;20383;-70
2023/10/03 01:31:28;;;;;;;19.88;11.98;;;20.70;99.90;;;;;;6120280;23;20018;-69
2023/10/03 01:33:54;;;;;;;20.45;12.57;;;21.20;99.90;;;;;;6095470;23;20068;-70
2023/10/03 01:36:20;;;;;;;20.13;12.07;;;20.30;99.90;;;;;;6095816;23;20355;-69
2023/10/03 01:38:46;;;;;;;23.25;12.75;;;20.60;99.90;;;;;;6095623;23;20017;-69
2023/10/03 01:41:13;;;;;;;22.95;14.45;;;21.40;99.90;;;;;;6095023;23;20010;-70
2023/10/03 01:43:43;;;;;;;21.42;12.45;;;21.00;99.90;;;;;;6095948;23;20017;-69
2023/10/03 01:46:09;;;;;;;22.65;13.65;;;21.30;99.90;;;;;;6096362;23;20010;-69
2023/10/03 01:48:36;;;;;;;21.67;13.02;;;20.70;99.90;;;;;;6095156;23;20045;-69
2023/10/03 01:51:02;;;;;;;23.63;13.75;;;20.90;99.90;;;;;;6096157;23;20018;-69
2023/10/03 01:53:29;;;;;;;23.73;13.60;;;20.50;99.90;;;;;;6096014;23;20117;-69
2023/10/03 01:55:58;;;;;;;23.58;14.15;;;21.20;99.90;;;;;;6122439;23;20805;-69
2023/10/03 01:58:25;;;;;;;24.98;14.32;;;21.40;99.90;;;;;;6095123;23;20093;-69
2023/10/03 02:00:51;;;;;;;26.80;15.07;;;21.20;99.90;;;;;;6121521;23;20448;-69
2023/10/03 02:03:18;;;;;;;27.27;16.00;;;20.40;99.90;;;;;;6095088;23;20014;-70
2023/10/03 02:05:45;;;;;;;23.67;15.63;;;20.90;99.90;;;;;;6095725;23;20398;-70
2023/10/03 02:08:18;;;;;;;25.75;14.30;;;21.50;99.90;;;;;;6092693;23;20092;-70
2023/10/03 02:10:49;;;;;;;25.92;14.95;;;20.50;99.90;;;;;;6095017;23;20065;-70
2023/10/03 02:13:15;;;;;;;22.88;13.73;;;20.10;99.90;;;;;;6117753;23;20014;-70
2023/10/03 02:15:42;;;;;;;25.40;14.00;;;21.30;99.90;;;;;;6069768;23;20080;-70
2023/10/03 02:18:12;;;;;;;23.20;13.43;;;21.40;99.90;;;;;;6095081;23;20395;-70
2023/10/03 02:20:52;;;;;;;27.10;13.82;;;20.20;96.10;;;;;;6094922;23;20014;-69
2023/10/03 02:23:23;;;;;;;24.75;15.55;;;21.50;91.30;;;;;;6071955;23;20320;-69
2023/10/03 02:26:10;;;;;;;24.92;15.15;;;20.60;1.00;;;;;;6095766;23;20010;-70
2023/10/03 02:28:40;;;;;;;28.98;15.98;;;20.50;99.90;;;;;;6095308;23;20033;-70
2023/10/03 02:31:09;;;;;;;24.85;14.82;;;20.20;99.90;;;;;;6072140;23;20017;-69
2023/10/03 02:33:44;;;;;;;26.17;15.13;;;20.90;99.90;;;;;;6095846;23;20085;-70
2023/10/03 02:36:10;;;;;;;27.23;16.05;;;20.40;99.90;;;;;;6095371;23;20040;-69
2023/10/03 02:38:37;;;;;;;27.08;15.50;;;21.20;99.90;;;;;;6095031;23;20436;-69
2023/10/03 02:41:06;;;;;;;27.05;15.55;;;21.30;99.90;;;;;;6095344;23;20443;-70
2023/10/03 02:43:38;;;;;;;23.77;15.80;;;21.00;99.90;;;;;;6121263;23;20020;-69
2023/10/03 02:46:04;;;;;;;24.60;14.85;;;21.10;99.90;;;;;;6095780;23;20010;-69
2023/10/03 02:48:30;;;;;;;28.08;15.68;;;21.30;99.90;;;;;;6095276;23;20093;-70
2023/10/03 02:50:56;;;;;;;25.40;14.90;;;19.90;99.90;;;;;;6071878;23;20041;-69
2023/10/03 02:53:22;;;;;;;27.90;14.85;;;21.20;99.90;;;;;;6122074;23;20123;-70
2023/10/03 02:55:49;;;;;;;29.98;14.93;;;21.00;99.90;;;;;;6071951;23;20014;-69
2023/10/03 02:58:22;;;;;;;27.35;16.08;;;20.10;99.90;;;;;;6120486;23;20018;-70
2023/10/03 03:00:53;;;;;;;26.58;14.32;;;20.00;99.90;;;;;;6095104;23;20104;-70
2023/10/03 03:03:19;;;;;;;29.80;16.30;;;20.40;99.90;;;;;;6071199;23;20448;-69
2023/10/03 03:05:48;;;;;;;25.88;15.00;;;20.90;99.90;;;;;;6121792;23;20081;-69
2023/10/03 03:10:42;;;;;;;25.55;15.60;;;21.20;99.90;;;;;;6121695;23;20024;-69
2023/10/03 03:13:08;;;;;;;26.58;14.63;;;20.30;99.90;;;;;;6097410;23;20408;-69
2023/10/03 03:15:37;;;;;;;27.48;15.27;;;19.90;99.90;;;;;;6097842;23;20018;-70
2023/10/03 03:18:05;;;;;;;25.70;15.15;;;20.30;99.90;;;;;;6096702;23;20018;-69
2023/10/03 03:20:38;;;;;;;28.88;15.82;;;21.20;93.30;;;;;;6097897;23;20089;-69
2023/10/03 03:23:05;;;;;;;28.60;15.20;;;20.00;95.60;;;;;;6097982;23;20325;-70
2023/10/03 03:25:37;;;;;;;27.25;14.98;;;20.50;95.50;;;;;;6098338;23;20021;-69
2023/10/03 03:28:08;;;;;;;29.55;15.45;;;20.10;83.60;;;;;;6097933;23;20053;-69
2023/10/03 03:30:34;;;;;;;27.17;14.90;;;20.30;91.10;;;;;;6098186;23;20479;-70
2023/10/03 03:33:00;;;;;;;27.55;15.05;;;21.20;92.50;;;;;;6116392;23;20029;-70
2023/10/03 03:35:26;;;;;;;27.73;15.73;;;20.10;91.40;;;;;;6098341;23;20018;-70
2023/10/03 03:37:56;;;;;;;25.48;14.75;;;21.10;90.40;;;;;;6123679;23;20013;-70
2023/10/03 03:40:34;;;;;;;25.83;14.52;;;21.00;90.50;;;;;;6121581;23;20018;-69
2023/10/03 03:43:03;;;;;;;24.65;14.48;;;19.90;95.50;;;;;;6121741;23;20018;-69
2023/10/03 03:45:30;;;;;;;26.00;15.30;;;21.20;97.40;;;;;;6121976;23;20056;-69
2023/10/03 03:47:56;;;;;;;25.60;14.55;;;20.00;95.00;;;;;;6122072;23;20151;-70
2023/10/03 03:50:22;;;;;;;25.40;14.27;;;20.20;94.90;;;;;;6120503;23;20068;-70
2023/10/03 03:52:52;;;;;;;26.58;13.65;;;20.50;94.60;;;;;;6097465;23;20021;-69
2023/10/03 03:55:18;;;;;;;24.50;13.77;;;20.10;92.10;;;;;;6121145;23;20072;-69
2023/10/03 03:57:50;;;;;;;25.92;13.52;;;21.90;97.60;;;;;;6122826;23;20033;-69
2023/10/03 04:00:19;;;;;;;24.10;13.40;;;19.90;98.40;;;;;;6119608;23;20050;-71
2023/10/03 04:02:45;;;;;;;22.30;12.45;;;20.90;98.20;;;;;;6119144;23;20086;-69
2023/10/03 04:05:12;;;;;;;23.35;13.02;;;21.20;95.50;;;;;;6120536;23;20056;-69
2023/10/03 04:07:38;;;;;;;24.02;13.00;;;20.50;94.20;;;;;;6094905;23;20014;-69
2023/10/03 04:10:09;;;;;;;24.63;14.45;;;20.60;96.80;;;;;;6119372;23;20065;-69
2023/10/03 04:12:41;;;;;;;24.98;13.02;;;20.20;94.80;;;;;;6121264;23;20018;-69
2023/10/03 04:15:12;;;;;;;24.70;12.55;;;19.80;99.00;;;;;;6121621;23;20499;-69
2023/10/03 04:17:42;;;;;;;21.23;12.48;;;20.20;99.90;;;;;;6121195;23;20029;-69
2023/10/03 04:22:50;;;;;;;24.90;13.60;;;20.30;99.90;;;;;;6121256;23;20029;-70
2023/10/03 04:25:20;;;;;;;24.10;13.25;;;21.20;99.90;;;;;;6121296;23;20042;-69
2023/10/03 04:27:47;;;;;;;25.42;13.50;;;20.10;99.90;;;;;;6120014;23;20014;-70
2023/10/03 04:30:14;;;;;;;24.20;13.35;;;20.80;99.90;;;;;;6120072;23;20037;-69
2023/10/03 04:32:41;;;;;;;23.88;12.68;;;20.50;99.90;;;;;;6122898;23;20475;-70
2023/10/03 04:35:13;;;;;;;23.67;11.68;;;20.10;99.90;;;;;;6096596;23;20018;-69
2023/10/03 04:37:41;;;;;;;23.65;13.13;;;21.30;99.90;;;;;;6095816;23;20022;-69
2023/10/03 04:40:34;;;;;;;26.08;12.88;;;20.10;99.90;;;;;;6095646;23;20351;-69
2023/10/03 04:42:58;;;;;;;29.40;13.35;;;20.20;99.90;;;;;;6121853;23;20475;-69
2023/10/03 04:45:25;;;;;;;24.65;12.48;;;20.30;99.90;;;;;;6122801;23;20347;-70
2023/10/03 04:47:51;;;;;;;24.67;12.52;;;21.20;99.90;;;;;;6095806;23;20016;-70
2023/10/03 04:50:18;;;;;;;26.50;12.55;;;20.10;99.90;;;;;;6096163;23;20068;-70
2023/10/03 04:52:48;;;;;;;29.95;13.70;;;20.20;99.90;;;;;;6122417;23;20096;-70
2023/10/03 04:55:18;;;;;;;25.50;13.18;;;19.90;99.90;;;;;;6096673;23;20020;-70
2023/10/03 04:57:45;;;;;;;26.38;13.35;;;20.10;99.90;;;;;;6096803;23;20045;-70
2023/10/03 05:00:15;;;;;;;28.23;12.60;;;20.30;99.90;;;;;;6095470;23;20049;-69
2023/10/03 05:02:47;;;;;;;24.77;11.98;;;21.00;99.90;;;;;;6097039;23;20024;-69
2023/10/03 05:05:26;;;;;;;31.95;14.02;;;21.20;99.90;;;;;;6096410;23;20014;-69
2023/10/03 05:07:59;;;;;;;23.98;12.63;;;20.30;99.90;;;;;;6096191;23;20087;-70
2023/10/03 05:10:33;;;;;;;30.75;13.18;;;21.30;99.90;;;;;;6095506;23;20021;-69
2023/10/03 05:12:59;;;;;;;26.35;13.30;;;21.10;99.90;;;;;;6072110;23;20084;-70
2023/10/03 05:15:26;;;;;;;29.58;13.30;;;21.00;99.90;;;;;;6096116;23;20014;-70
2023/10/03 05:17:54;;;;;;;31.30;14.20;;;20.20;99.90;;;;;;6096657;23;20069;-70
2023/10/03 05:20:21;;;;;;;23.83;14.25;;;21.30;99.90;;;;;;6120996;23;20486;-70
2023/10/03 05:22:47;;;;;;;27.10;14.38;;;20.60;99.90;;;;;;6122758;23;20057;-70
2023/10/03 05:25:17;;;;;;;28.63;14.75;;;21.20;99.90;;;;;;6096133;23;20013;-70
2023/10/03 05:27:44;;;;;;;25.90;13.73;;;20.10;99.90;;;;;;6072225;23;20022;-70
2023/10/03 05:30:11;;;;;;;30.60;14.93;;;20.90;99.90;;;;;;6094815;23;20149;-71
2023/10/03 05:32:38;;;;;;;27.13;14.55;;;20.00;99.90;;;;;;6083005;23;20041;-71
2023/10/03 05:35:06;;;;;;;30.10;14.88;;;20.80;99.90;;;;;;6119693;23;20114;-70
2023/10/03 05:37:35;;;;;;;28.05;15.25;;;21.20;99.90;;;;;;6096472;23;20014;-69
2023/10/03 05:40:11;;;;;;;31.17;14.65;;;20.70;99.90;;;;;;6119866;23;20465;-69
2023/10/03 05:42:45;;;;;;;27.42;15.23;;;20.40;99.90;;;;;;6096040;23;20041;-69
2023/10/03 05:45:15;;;;;;;29.45;14.88;;;21.50;99.90;;;;;;6120977;23;20005;-69
2023/10/03 05:47:45;;;;;;;29.67;15.32;;;20.20;99.90;;;;;;6119630;23;20455;-69
2023/10/03 05:50:23;;;;;;;26.80;15.35;;;20.80;99.90;;;;;;6115245;23;20025;-69
2023/10/03 05:52:50;;;;;;;30.38;14.73;;;21.20;99.90;;;;;;6116514;23;20336;-69
2023/10/03 05:55:17;;;;;;;27.08;15.75;;;20.90;1.00;;;;;;6116545;23;20025;-69
2023/10/03 05:57:43;;;;;;;31.25;16.73;;;20.30;1.00;;;;;;6091725;23;20543;-69
2023/10/03 06:00:17;;;;;;;26.20;15.10;;;20.10;1.00;;;;;;6115658;23;20357;-69
2023/10/03 06:02:50;;;;;;;24.27;14.27;;;20.60;1.00;;;;;;6117942;23;20405;-69
2023/10/03 06:05:16;;;;;;;26.48;14.32;;;21.20;1.00;;;;;;6117565;23;20064;-69
2023/10/03 06:07:45;;;;;;;24.80;13.68;;;20.60;1.00;;;;;;6116266;23;20528;-70
2023/10/03 06:10:13;;;;;;;23.23;13.27;;;20.40;1.00;;;;;;6118171;23;20021;-70
2023/10/03 06:12:39;;;;;;;23.45;12.90;;;21.10;1.00;;;;;;6119711;23;20049;-69
2023/10/03 06:15:05;;;;;;;20.17;12.15;;;20.10;1.00;;;;;;6120739;23;20021;-69
2023/10/03 06:17:32;;;;;;;23.50;12.25;;;21.10;1.00;;;;;;6119272;23;20045;-69
2023/10/03 06:19:57;;;;;;;23.98;11.23;;;21.30;1.00;;;;;;6119691;23;20056;-70
2023/10/03 06:22:23;;;;;;;33.42;13.75;;;19.80;1.00;;;;;;6116645;23;20045;-70
2023/10/03 06:24:50;;;;;;;19.67;10.40;;;20.10;1.00;;;;;;6115745;23;20579;-70
2023/10/03 06:27:17;;;;;;;22.85;11.32;;;21.10;1.00;;;;;;6118182;23;20025;-69
2023/10/03 06:29:43;;;;;;;28.05;10.77;;;21.20;1.00;;;;;;6119617;23;20025;-69
2023/10/03 06:32:09;;;;;;;20.00;9.50;;;21.10;1.00;;;;;;6115787;23;20101;-69
2023/10/03 06:34:35;;;;;;;30.23;9.68;;;20.20;99.90;;;;;;6093022;23;20104;-69
2023/10/03 06:37:01;;;;;;;23.90;9.77;;;21.00;99.90;;;;;;6070630;23;20086;-69
2023/10/03 06:39:29;;;;;;;25.65;8.60;;;20.90;99.90;;;;;;6094821;23;20026;-68
2023/10/03 06:41:55;;;;;;;24.23;7.70;;;21.10;99.90;;;;;;6120457;23;20025;-69
2023/10/03 06:44:22;;;;;;;27.42;7.85;;;20.50;99.90;;;;;;6094289;23;20018;-68
2023/10/03 06:46:48;;;;;;;18.05;6.65;;;20.60;99.90;;;;;;6122973;23;20341;-69
2023/10/03 06:49:17;;;;;;;22.02;7.25;;;19.90;99.90;;;;;;6072236;23;20018;-69
2023/10/03 06:51:43;;;;;;;16.95;6.63;;;20.90;99.90;;;;;;6096221;23;20464;-68
2023/10/03 06:54:09;;;;;;;18.85;6.70;;;20.00;99.90;;;;;;6071930;23;20032;-69
2023/10/03 06:56:34;;;;;;;17.23;5.72;;;20.90;99.90;;;;;;6094487;23;20045;-69
2023/10/03 06:59:00;;;;;;;18.55;5.50;;;20.90;99.90;;;;;;6094473;23;20020;-69
2023/10/03 07:01:26;;;;;;;14.52;4.53;;;19.80;99.90;;;;;;6121336;23;20010;-68
2023/10/03 07:03:54;;;;;;;15.52;4.43;;;20.00;99.90;;;;;;6121951;23;20052;-68
2023/10/03 07:06:20;;;;;;;13.48;4.57;;;20.70;99.90;;;;;;6095831;23;20072;-69
2023/10/03 07:08:46;;;;;;;13.30;4.13;;;19.40;99.90;;;;;;6070313;23;20092;-69
2023/10/03 07:11:16;;;;;;;11.27;3.50;;;20.20;99.90;;;;;;6097390;23;20014;-68
2023/10/03 07:13:43;;;;;;;15.60;4.00;;;20.70;99.90;;;;;;6096610;23;20017;-69
2023/10/03 07:16:09;;;;;;;11.13;3.20;;;20.70;99.90;;;;;;6072456;23;20018;-68
2023/10/03 07:18:35;;;;;;;12.23;3.10;;;19.90;99.90;;;;;;6072243;23;20469;-69
2023/10/03 07:21:03;;;;;;;11.10;3.30;;;19.70;99.90;;;;;;6073500;23;20360;-69
2023/10/03 07:23:29;;;;;;;11.57;3.55;;;19.80;99.90;;;;;;6097957;23;20084;-68
2023/10/03 07:25:55;;;;;;;10.10;3.00;;;20.00;99.90;;;;;;6097046;23;20077;-68
2023/10/03 07:28:20;;;;;;;11.57;3.00;;;19.50;99.90;;;;;;6096803;23;20108;-69
2023/10/03 07:30:46;;;;;;;9.77;2.85;;;19.70;99.90;;;;;;6121942;23;20515;-69
2023/10/03 07:33:12;;;;;;;9.68;2.60;;;19.50;99.90;;;;;;6117231;23;20478;-69
2023/10/03 07:35:41;;;;;;;12.15;2.42;;;20.20;99.90;;;;;;6120895;23;20065;-68
2023/10/03 07:38:10;;;;;;;12.90;2.40;;;20.30;99.90;;;;;;6097275;23;20021;-69
2023/10/03 07:40:40;;;;;;;10.77;2.15;;;20.30;99.90;;;;;;6096837;23;20021;-69
2023/10/03 07:43:09;;;;;;;10.00;2.08;;;19.80;99.90;;;;;;6121446;23;20018;-69
2023/10/03 07:45:37;;;;;;;8.35;2.13;;;19.70;96.00;;;;;;6120494;23;20343;-68
2023/10/03 07:48:05;;;;;;;7.22;2.33;;;19.30;99.50;;;;;;6096928;23;20021;-69
2023/10/03 07:50:33;;;;;;;9.60;1.80;;;19.70;90.10;;;;;;6123246;23;20018;-68
2023/10/03 07:52:59;;;;;;;6.88;2.13;;;19.30;90.70;;;;;;6122559;23;20359;-69
2023/10/03 07:55:25;;;;;;;6.53;1.90;;;20.70;74.30;;;;;;6119902;23;20120;-69
2023/10/03 07:57:54;;;;;;;7.32;2.03;;;19.40;66.60;;;;;;6121046;23;20024;-69
2023/10/03 08:00:26;;;;;;;10.07;2.40;;;19.50;66.30;;;;;;6096280;23;20025;-69
2023/10/03 08:02:52;;;;;;;7.13;2.08;;;19.40;37.30;;;;;;6116962;23;20021;-68
2023/10/03 08:05:19;;;;;;;6.18;1.60;;;19.50;27.70;;;;;;6117209;23;20032;-68
2023/10/03 08:07:47;;;;;;;6.95;1.73;;;19.30;18.20;;;;;;6119496;23;20006;-68
2023/10/03 08:10:15;;;;;;;7.47;1.60;;;19.10;1.00;;;;;;6122334;23;20057;-69
2023/10/03 08:12:41;;;;;;;8.00;1.73;;;19.50;1.00;;;;;;6118445;23;20013;-69
2023/10/03 08:15:17;;;;;;;10.63;1.58;;;19.50;1.00;;;;;;6116737;23;20029;-68
2023/10/03 08:17:48;;;;;;;8.23;1.77;;;19.30;1.00;;;;;;6119056;23;20069;-68
2023/10/03 08:20:18;;;;;;;4.53;1.40;;;19.10;1.00;;;;;;6115183;23;20677;-68
2023/10/03 08:22:53;;;;;;;8.27;1.40;;;19.30;1.00;;;;;;6119380;23;20014;-68
2023/10/03 08:25:24;;;;;;;6.07;1.38;;;19.20;1.00;;;;;;6119800;23;20459;-68
2023/10/03 08:27:51;;;;;;;7.97;1.60;;;18.80;1.00;;;;;;6119869;23;20014;-68
2023/10/03 08:30:29;;;;;;;7.40;1.88;;;19.20;1.00;;;;;;6119311;23;20345;-69
2023/10/03 08:32:57;;;;;;;6.60;1.30;;;19.40;1.00;;;;;;6119443;23;20498;-68
2023/10/03 08:35:41;;;;;;;4.82;1.25;;;18.80;1.00;;;;;;6121444;23;20379;-69
2023/10/03 08:38:13;;;;;;;6.57;1.20;;;19.00;1.00;;;;;;6072109;23;20105;-68
2023/10/03 08:40:49;;;;;;;5.03;1.00;;;19.30;1.00;;;;;;6095088;23;20767;-68
2023/10/03 08:43:25;;;;;;;7.40;1.55;;;18.90;99.90;;;;;;6094091;23;20072;-68
2023/10/03 08:45:56;;;;;;;4.85;1.50;;;19.00;99.90;;;;;;6094812;23;20022;-68
2023/10/03 08:48:30;;;;;;;5.03;1.05;;;18.80;99.90;;;;;;6093129;23;20113;-68
2023/10/03 08:51:02;;;;;;;6.22;1.23;;;19.00;99.90;;;;;;6070270;23;20424;-69
2023/10/03 08:53:27;;;;;;;4.05;1.02;;;18.90;99.90;;;;;;6068191;23;20224;-68
2023/10/03 08:55:57;;;;;;;8.75;1.55;;;18.80;99.90;;;;;;6072445;23;20040;-70
2023/10/03 08:58:25;;;;;;;6.22;1.45;;;19.00;99.90;;;;;;6121964;23;20014;-69
2023/10/03 09:00:58;;;;;;;4.95;1.42;;;19.40;99.90;;;;;;6093155;23;20009;-69
2023/10/03 09:03:47;;;;;;;6.88;1.60;;;19.30;99.90;;;;;;6095013;23;20014;-69
2023/10/03 09:06:23;;;;;;;4.15;1.13;;;18.10;99.90;;;;;;6095375;23;20016;-68
2023/10/03 09:08:51;;;;;;;5.57;1.13;;;18.80;99.90;;;;;;6094684;23;20029;-68
2023/10/03 09:11:18;;;;;;;5.72;1.52;;;18.70;99.90;;;;;;6095393;23;20026;-68
2023/10/03 09:13:48;;;;;;;4.40;1.30;;;18.10;99.90;;;;;;6072040;23;20014;-68
2023/10/03 09:16:19;;;;;;;4.53;1.10;;;18.80;99.90;;;;;;6073266;23;20025;-68
2023/10/03 09:18:55;;;;;;;3.92;1.25;;;18.80;99.90;;;;;;6094606;23;20010;-69
2023/10/03 09:21:27;;;;;;;6.38;1.20;;;18.90;99.90;;;;;;6116273;23;20018;-68
2023/10/03 09:24:11;;;;;;;4.57;1.30;;;18.80;99.90;;;;;;6120075;23;20017;-69
2023/10/03 09:26:47;;;;;;;5.45;1.30;;;18.80;99.90;;;;;;6094785;23;20017;-69
2023/10/03 09:29:32;;;;;;;6.50;1.17;;;19.00;99.90;;;;;;6092216;23;20022;-68
2023/10/03 09:32:13;;;;;;;6.10;1.52;;;18.70;99.90;;;;;;6118201;23;20018;-68
2023/10/03 09:34:43;;;;;;;8.23;1.63;;;19.00;99.90;;;;;;6095240;23;20369;-69
2023/10/03 09:37:10;;;;;;;7.38;1.92;;;18.70;99.90;;;;;;6121533;23;20030;-68
2023/10/03 09:39:39;;;;;;;7.95;1.70;;;18.20;99.90;;;;;;6070124;23;20476;-68
2023/10/03 09:42:15;;;;;;;5.38;1.55;;;18.70;99.90;;;;;;6094166;23;20590;-68
2023/10/03 09:44:48;;;;;;;7.97;1.85;;;18.70;99.90;;;;;;6095572;23;20061;-68
2023/10/03 09:47:30;;;;;;;5.72;1.67;;;18.70;99.90;;;;;;6092460;23;20018;-68
2023/10/03 09:50:03;;;;;;;5.85;1.65;;;18.20;99.90;;;;;;6118653;23;20073;-68
2023/10/03 09:52:30;;;;;;;5.72;1.50;;;18.50;99.90;;;;;;6120962;23;20493;-68
2023/10/03 09:57:40;;;;;;;;;;;17.90;99.90;;;;;;6095436;23;20026;-68
2023/10/03 10:00:23;;;;;;;7.10;1.80;;;18.80;99.90;;;;;;6119428;23;19917;-68
2023/10/03 10:02:54;;;;;;;6.10;1.55;;;18.60;99.90;;;;;;6092198;23;20359;-68
2023/10/03 10:05:25;;;;;;;7.65;1.90;;;18.70;99.90;;;;;;6092961;23;20014;-68
2023/10/03 10:08:27;;;;;;;7.20;2.00;;;18.10;99.90;;;;;;6092946;23;20355;-68
2023/10/03 10:11:07;;;;;;;7.68;1.95;;;18.10;99.90;;;;;;6070565;23;20464;-68
2023/10/03 10:13:45;;;;;;;9.00;1.90;;;18.70;99.90;;;;;;6120225;23;20340;-69
2023/10/03 10:18:45;;;;;;;7.80;2.22;;;18.70;99.90;;;;;;6089916;23;20018;-69
2023/10/03 10:21:24;;;;;;;7.45;2.05;;;17.80;99.90;;;;;;6121135;23;20089;-69
2023/10/03 10:24:20;;;;;;;7.65;1.75;;;19.00;99.90;;;;;;6092031;23;20022;-69
2023/10/03 10:26:52;;;;;;;8.10;2.05;;;18.60;90.20;;;;;;6093282;23;20337;-69
2023/10/03 10:29:24;;;;;;;6.55;1.90;;;18.50;94.60;;;;;;6092468;23;20022;-69
2023/10/03 10:31:59;;;;;;;8.55;2.20;;;18.40;61.40;;;;;;6096193;23;20084;-69
2023/10/03 10:34:28;;;;;;;7.05;1.70;;;18.00;62.60;;;;;;6116315;23;20020;-69
2023/10/03 10:37:01;;;;;;;6.20;2.00;;;18.30;62.70;;;;;;6118233;23;20017;-69
2023/10/03 10:39:53;;;;;;;7.33;1.60;;;17.90;28.40;;;;;;6119022;23;20082;-69
2023/10/03 10:42:24;;;;;;;6.07;1.70;;;18.30;11.90;;;;;;6096210;23;20829;-69
2023/10/03 10:45:16;;;;;;;6.20;1.75;;;18.30;20.60;;;;;;6094242;23;20097;-69
2023/10/03 10:47:46;;;;;;;6.57;2.13;;;17.70;3.10;;;;;;6108289;23;20021;-69
2023/10/03 10:50:12;;;;;;;6.28;2.13;;;17.90;25.10;;;;;;6119115;23;20520;-69
2023/10/03 10:52:56;;;;;;;7.55;2.10;;;18.50;27.70;;;;;;6093917;23;20046;-69
2023/10/03 10:55:25;;;;;;;8.10;2.50;;;17.50;37.60;;;;;;6119503;23;20022;-69
2023/10/03 10:58:09;;;;;;;6.55;2.53;;;18.20;22.10;;;;;;6117245;23;20018;-69
2023/10/03 11:00:36;;;;;;;8.13;2.33;;;18.10;23.60;;;;;;6119204;23;20029;-69
2023/10/03 11:03:03;;;;;;;8.00;2.47;;;17.40;36.50;;;;;;6119405;23;20013;-69
2023/10/03 11:05:49;;;;;;;7.22;2.38;;;17.80;31.30;;;;;;6121164;23;20081;-69
2023/10/03 11:08:17;;;;;;;8.70;2.55;;;17.40;49.00;;;;;;6117177;23;20014;-69
2023/10/03 11:10:53;;;;;;;7.07;3.05;;;17.50;26.30;;;;;;6119497;23;20022;-68
2023/10/03 11:13:20;;;;;;;9.27;2.42;;;17.30;18.30;;;;;;6117227;23;20389;-69
2023/10/03 11:15:53;;;;;;;8.80;2.22;;;17.20;23.80;;;;;;6118012;23;20363;-69
2023/10/03 11:18:29;;;;;;;11.88;3.13;;;18.60;1.00;;;;;;6121126;23;20023;-68
2023/10/03 11:20:57;;;;;;;8.85;2.45;;;17.30;1.00;;;;;;6119789;23;20024;-69
2023/10/03 11:23:23;;;;;;;8.48;2.22;;;17.90;1.00;;;;;;6119282;23;20018;-68
2023/10/03 11:26:00;;;;;;;8.10;2.70;;;18.30;1.00;;;;;;6114338;23;20025;-68
2023/10/03 11:28:29;;;;;;;8.40;2.22;;;17.20;1.00;;;;;;6117273;23;20014;-69
2023/10/03 11:31:02;;;;;;;8.23;2.55;;;18.20;1.00;;;;;;6115344;23;20088;-68
2023/10/03 11:33:28;;;;;;;11.45;2.40;;;18.40;1.00;;;;;;6118646;23;20018;-69
2023/10/03 11:35:54;;;;;;;7.95;2.20;;;18.20;1.00;;;;;;6117451;23;20046;-69
2023/10/03 11:38:20;;;;;;;10.90;2.50;;;18.10;1.00;;;;;;6119040;23;20018;-68
2023/10/03 11:40:49;;;;;;;8.77;2.20;;;18.60;1.00;;;;;;6122979;23;20018;-69
2023/10/03 11:43:20;;;;;;;9.68;3.22;;;17.50;1.00;;;;;;6121136;23;20022;-68
2023/10/03 11:45:57;;;;;;;12.02;2.67;;;18.70;1.00;;;;;;6118864;23;20017;-69
2023/10/03 11:48:23;;;;;;;9.80;2.30;;;18.20;1.00;;;;;;6121571;23;20010;-69
2023/10/03 11:50:49;;;;;;;9.07;2.30;;;18.00;1.00;;;;;;6121615;23;20018;-69
2023/10/03 11:53:15;;;;;;;7.32;1.92;;;17.60;1.00;;;;;;6120181;23;20014;-68
2023/10/03 11:55:42;;;;;;;9.32;2.78;;;17.50;1.00;;;;;;6118048;23;20014;-69
2023/10/03 11:58:12;;;;;;;10.98;2.67;;;18.50;1.00;;;;;;6117089;23;20344;-69
2023/10/03 12:00:49;;;;;;;10.15;2.05;;;18.60;1.00;;;;;;6116408;23;20021;-68
2023/10/03 12:03:15;;;;;;;10.00;1.90;;;17.80;1.00;;;;;;6119007;23;20014;-69
2023/10/03 12:05:45;;;;;;;10.35;2.92;;;18.50;1.00;;;;;;6117959;23;20017;-68
2023/10/03 12:08:15;;;;;;;9.18;2.10;;;18.60;99.90;;;;;;6118146;23;20351;-69
2023/10/03 12:10:41;;;;;;;8.38;1.90;;;18.60;1.00;;;;;;6119930;23;20025;-68
2023/10/03 12:13:09;;;;;;;7.47;2.20;;;18.10;1.00;;;;;;6119864;23;20120;-69
2023/10/03 12:15:41;;;;;;;9.02;2.33;;;18.20;1.00;;;;;;6120591;23;20040;-69
2023/10/03 12:18:06;;;;;;;9.57;3.10;;;17.30;1.00;;;;;;6115647;23;20180;-69
2023/10/03 12:20:33;;;;;;;6.15;2.08;;;17.70;1.00;;;;;;6119694;23;20464;-68
2023/10/03 12:22:58;;;;;;;8.82;2.33;;;17.60;1.00;;;;;;6114483;23;20014;-68
2023/10/03 12:25:26;;;;;;;8.85;2.50;;;18.30;1.00;;;;;;6121347;23;20109;-68
2023/10/03 12:27:53;;;;;;;7.28;2.38;;;18.00;1.00;;;;;;6111856;23;20368;-68
2023/10/03 12:30:22;;;;;;;9.05;2.88;;;18.50;1.00;;;;;;6119882;23;20033;-68
2023/10/03 12:32:49;;;;;;;10.32;2.83;;;18.10;99.90;;;;;;6115969;23;20519;-68
2023/10/03 12:35:16;;;;;;;8.48;2.33;;;17.80;99.90;;;;;;6119688;23;20014;-69
2023/10/03 12:37:46;;;;;;;8.05;2.50;;;18.60;99.90;;;;;;6116673;23;20459;-68
2023/10/03 12:40:16;;;;;;;10.40;2.67;;;17.90;99.90;;;;;;6119147;23;20131;-69
2023/10/03 12:42:48;;;;;;;11.13;3.10;;;17.40;99.90;;;;;;6115339;23;20017;-69
2023/10/03 12:45:16;;;;;;;9.13;2.10;;;18.70;99.90;;;;;;6120169;23;20024;-68
2023/10/03 12:47:49;;;;;;;8.68;2.80;;;18.60;99.90;;;;;;6119522;23;20017;-68
2023/10/03 12:50:17;;;;;;;7.22;2.15;;;17.70;99.90;;;;;;6119625;23;20018;-69
2023/10/03 12:52:42;;;;;;;8.45;2.30;;;18.40;99.90;;;;;;6120350;23;20475;-68
2023/10/03 12:55:09;;;;;;;9.88;2.63;;;17.40;99.90;;;;;;6119217;23;20095;-68
2023/10/03 12:57:36;;;;;;;7.22;2.65;;;17.50;99.90;;;;;;6117928;23;20432;-69
2023/10/03 13:00:03;;;;;;;9.98;2.30;;;18.60;99.90;;;;;;6118189;23;20024;-69